Main page
METAR-TAF:

METAR-TAF

Airports :

Žilina Airport

Žilina, Slovakia

latitude: 49-14N, longitude: 018-36-49E, elevation: 312 m

Current weather observation

The report was made 22 minutes ago, at 10:00 UTC
Wind 7 kt from the Northeast
Temperature 2°C
Humidity 51%
Pressure 1016 hPa
Visibility 10 km or more
Few clouds at a height of 5800 ft
Scattered clouds at a height of 7000 ft

METAR: LZZI 191000Z 05007KT 9999 FEW058 SCT070 02/M07 Q1016

Time: 11:22 (10:22 UTC)

Forecast

The report was made 2 hours and 22 minutes ago, at 08:00 UTC
Forecast valid from 19 at 09 UTC to 19 at 18 UTC
Wind 6 kt from the Northeast
Visibility 10 km or more
Scattered clouds at a height of 3000 ft
Broken clouds at a height of 6500 ft

TAF: LZZI 190800Z 1909/1918 04006KT 9999 SCT030 BKN065

Weather observations and forecasts of more than 4000 airports (METAR and TAF reports).

The available stations are represented by yellow and red dots on the map.

Hover mouse over dot to see the name of the station.

Then click to see weather observations and forecasts.

To change the map : click on the green buttons with a black cross to zoom in, on the green button with a dash to zoom out, or on the green arrows for adjacent maps.


METAR-TAF: